ES-0219 weather

Aeródromo de Camarenilla
Camarenilla, Castilla-La Mancha, Spain

Public forecast

Using degrees Celsius for public forecast. Weather courtesy of forecast.io.

Closest aviation weather report (METAR) to Aeródromo de Camarenilla

Closest report is Getafe Air Base, 22.7 nm (42.1 km) NE. Retrieved 2019/10/14 05:00 UTC (37 minutes ago):

LEGT 140500Z 16005KT CAVOK 16/12 Q1011

Closest aviation forecast (TAF) to Aeródromo de Camarenilla

Forecast is more than 12 hours old.

Closest forecast is Getafe Air Base, 22.7 nm (42.1 km) NE. Retrieved 2018/03/28 12:33 UTC (2 years ago):

TAF LEGT 281100Z 2812/2824 24010KT CAVOK PROB40 TEMPO 2814/2818 27015G25KT TEMPO 2820/2824 28008KT